WetterOnline ( https://www.wetteronline.de )

Wetter aktuell Rubihorn

Aktuelles Wetter: Oberstdorf (812m)

6-stündlich | Neueste Meldungen
Ortszeit Temperatur Wetter
Do, 24.06. 8:00 14.3° C wolkenlos
Do, 24.06. 2:00 13.4° C bewölkt
Mi, 23.06. 20:00 17.2° C bedeckt
Mi, 23.06. 14:00 21.5° C bewölkt
Mi, 23.06. 8:00 15.4° C bedeckt
Mi, 23.06. 2:00 14.6° C bewölkt
Di, 22.06. 20:00 18.3° C bedeckt
Di, 22.06. 14:00 17.7° C bedeckt
Ortszeit Temperatur Wetter
Do, 24.06. 13:00 17.6° C bedeckt
Do, 24.06. 12:40 17.5° C bewölkt
Do, 24.06. 12:30 18.1° C bewölkt
Do, 24.06. 12:20 18.1° C bewölkt
Do, 24.06. 12:10 17.8° C bewölkt
Do, 24.06. 12:00 19.9° C wolkig
Do, 24.06. 11:50 19.9° C wolkig
Do, 24.06. 11:30 20.2° C bewölkt
Do, 24.06. 11:00 20.3° C wolkig
Do, 24.06. 10:30 19.5° C wolkenlos
Do, 24.06. 10:00 19.2° C wolkenlos
Ortszeit Relative Feuchte Sichtweite
Do, 24.06. 8:00 81% 65 km
Do, 24.06. 2:00 88% >70 km
Mi, 23.06. 20:00 93% 30 km
Mi, 23.06. 14:00 65% 55 km
Mi, 23.06. 8:00 90% 60 km
Mi, 23.06. 2:00 96% 40 km
Di, 22.06. 20:00 76% 60 km
Di, 22.06. 14:00 76% 50 km
Ortszeit Relative Feuchte Sichtweite
Do, 24.06. 13:00 70% >70 km
Do, 24.06. 12:40 70% -
Do, 24.06. 12:30 69% 65 km
Do, 24.06. 12:20 69% -
Do, 24.06. 12:10 70% -
Do, 24.06. 12:00 68% 45 km
Do, 24.06. 11:50 68% -
Do, 24.06. 11:30 60% 50 km
Do, 24.06. 11:00 56% 65 km
Do, 24.06. 10:30 53% 65 km
Do, 24.06. 10:00 61% >70 km
Ortszeit Niederschlagsmenge Niederschlagsart
Do, 24.06. 8:00 0.6 l/m2 in 12 Std. -
Do, 24.06. 2:00 0.6 l/m2 in 6 Std. Regen
Mi, 23.06. 20:00 6 l/m2 in 12 Std. Regen
Mi, 23.06. 14:00 0.0 l/m2 in 6 Std. -
Mi, 23.06. 8:00 2 l/m2 in 12 Std. -
Mi, 23.06. 2:00 2 l/m2 in 6 Std. Regen
Di, 22.06. 20:00 0.1 l/m2 in 12 Std. -
Di, 22.06. 14:00 0.1 l/m2 in 6 Std. Regen
Ortszeit Niederschlagsmenge Niederschlagsart
Do, 24.06. 13:00 keine Meldung -
Do, 24.06. 12:40 keine Meldung -
Do, 24.06. 12:30 0.0 l/m2 in 1 Std. -
Do, 24.06. 12:20 keine Meldung -
Do, 24.06. 12:10 keine Meldung -
Do, 24.06. 12:00 0.0 l/m2 in 1 Std. -
Do, 24.06. 11:50 keine Meldung -
Do, 24.06. 11:30 0.0 l/m2 in 1 Std. -
Do, 24.06. 11:00 0.0 l/m2 in 1 Std. -
Do, 24.06. 10:30 0.0 l/m2 in 1 Std. -
Do, 24.06. 10:00 0.0 l/m2 in 1 Std. -
Ortszeit Stärke Spitze Richtung
km/h Bft. km/h Grad Sektor
Do, 24.06. 8:00 2 1 22 130° SO
Do, 24.06. 2:00 7 2 36 210° SW
Mi, 23.06. 20:00 6 1 30 200° S
Mi, 23.06. 14:00 18 3 32 350° N
Mi, 23.06. 8:00 4 1 7 200° S
Mi, 23.06. 2:00 4 1 25 100° O
Di, 22.06. 20:00 14 3 32 300° NW
Di, 22.06. 14:00 22 4 47 280° W
Ortszeit Stärke Spitze Richtung
km/h Bft. km/h Grad Sektor
Do, 24.06. 13:00 20 4 46 300° NW
Do, 24.06. 12:40 19 3 - 290° W
Do, 24.06. 12:30 24 4 46 280° W
Do, 24.06. 12:20 24 4 - 280° W
Do, 24.06. 12:10 31 5 - 280° W
Do, 24.06. 12:00 24 4 44 270° W
Do, 24.06. 11:50 24 4 - 270° W
Do, 24.06. 11:30 6 1 11 40° NO
Do, 24.06. 11:00 4 1 14 50° NO
Do, 24.06. 10:30 6 1 15 30° NO
Do, 24.06. 10:00 4 1 7 40° NO
Ortszeit Untergrenze Bedeckung Gattung
total tief tief mittel hoch
Do, 24.06. 8:00 - 0/8 0/8 - - -
Do, 24.06. 2:00 1140 m 7/8 7/8 - - -
Mi, 23.06. 20:00 3600 m 8/8 8/8 - - -
Mi, 23.06. 14:00 810 m 7/8 7/8 - - -
Mi, 23.06. 8:00 240 m 8/8 8/8 - - -
Mi, 23.06. 2:00 1500 m 8/8 6/8 - - -
Di, 22.06. 20:00 1020 m 8/8 8/8 - - -
Di, 22.06. 14:00 750 m 8/8 8/8 - - -
Ortszeit Bedeckungsgrad in Achtel und Wolkenuntergrenze
Do, 24.06. 13:00 8(1020m)
Do, 24.06. 12:40 7(1020m)
Do, 24.06. 12:30 5(990m) 7(1500m) 7(3900m)
Do, 24.06. 12:20 5(990m) 7(1500m) 7(3900m)
Do, 24.06. 12:10 3(1050m) 6(1500m) 7(3900m)
Do, 24.06. 12:00 2(1260m) 5(1500m) 7(3300m)
Do, 24.06. 11:50 2(1260m) 5(1500m) 7(3300m)
Do, 24.06. 11:30 7(3300m) 7(3900m)
Do, 24.06. 11:00 5(3000m)
Do, 24.06. 10:30 keine Wolken
Do, 24.06. 10:00 1(3000m)
Ortszeit Stationsdruck (hPa) Tendenz (hPa in 3 Std.)
Do, 24.06. 8:00 925 - 0,9
Do, 24.06. 2:00 928 + 3,4
Mi, 23.06. 20:00 924 0,0
Mi, 23.06. 14:00 925 - 0,4
Mi, 23.06. 8:00 926 + 0,9
Mi, 23.06. 2:00 925 + 0,1
Di, 22.06. 20:00 923 + 0,5
Di, 22.06. 14:00 921 + 2,2
Ortszeit Stationsdruck (hPa) Tendenz (hPa in 3 Std.)
Do, 24.06. 13:00 926 + 1,6
Do, 24.06. 12:40 926 keine Meldung
Do, 24.06. 12:30 926 + 1,1
Do, 24.06. 12:20 926 keine Meldung
Do, 24.06. 12:10 926 keine Meldung
Do, 24.06. 12:00 926 + 0,9
Do, 24.06. 11:50 926 keine Meldung
Do, 24.06. 11:30 925 0,0
Do, 24.06. 11:00 925 - 0,4
Do, 24.06. 10:30 925 - 0,6
Do, 24.06. 10:00 925 - 0,7
Ortszeit Schneehöhe (cm)
Do, 24.06. 8:00 -
Do, 24.06. 2:00 -
Mi, 23.06. 20:00 -
Mi, 23.06. 14:00 -
Mi, 23.06. 8:00 -
Mi, 23.06. 2:00 -
Di, 22.06. 20:00 -
Di, 22.06. 14:00 -
Ortszeit Schneehöhe (cm)
Do, 24.06. 13:00 -
Do, 24.06. 12:40 -
Do, 24.06. 12:30 -
Do, 24.06. 12:20 -
Do, 24.06. 12:10 -
Do, 24.06. 12:00 -
Do, 24.06. 11:50 -
Do, 24.06. 11:30 -
Do, 24.06. 11:00 -
Do, 24.06. 10:30 -
Do, 24.06. 10:00 -
Link zu dieser Seite / Seite empfehlen

Das Wetter in ...